createdAt,value
2023-03-13T00:00:23.295Z,20.88
2023-03-13T00:02:57.827Z,19.13
2023-03-13T00:05:28.618Z,20.58
2023-03-13T00:07:59.701Z,25.73
2023-03-13T00:10:30.908Z,20.33
2023-03-13T00:13:01.627Z,17.83
2023-03-13T00:15:32.758Z,20.48
2023-03-13T00:18:03.897Z,14.55
2023-03-13T00:20:34.633Z,18.08
2023-03-13T00:23:06.255Z,15.98
2023-03-13T00:25:45.901Z,21.75
2023-03-13T00:28:17.066Z,15.25
2023-03-13T00:30:51.655Z,28.35
2023-03-13T00:33:22.633Z,13.15
2023-03-13T00:35:54.376Z,16.35
2023-03-13T00:38:25.390Z,21.98
2023-03-13T00:41:08.160Z,20.75
2023-03-13T00:43:39.246Z,17.92
2023-03-13T00:46:11.168Z,23.90
2023-03-13T00:48:53.762Z,25.08
2023-03-13T00:51:28.463Z,30.38
2023-03-13T00:54:04.598Z,19.92
2023-03-13T00:56:36.724Z,26.13
2023-03-13T01:01:51.716Z,17.88
2023-03-13T01:04:24.615Z,17.17
2023-03-13T01:06:55.642Z,24.10
2023-03-13T01:09:27.656Z,23.38
2023-03-13T01:11:58.397Z,24.00
2023-03-13T01:14:29.188Z,25.85
2023-03-13T01:17:00.232Z,21.90
2023-03-13T01:19:31.024Z,32.33
2023-03-13T01:22:01.945Z,32.53
2023-03-13T01:24:35.770Z,21.75
2023-03-13T01:27:06.551Z,16.35
2023-03-13T01:29:37.479Z,18.63
2023-03-13T01:32:08.821Z,20.40
2023-03-13T01:34:43.156Z,20.27
2023-03-13T01:37:14.042Z,31.27
2023-03-13T01:39:45.334Z,34.47
2023-03-13T01:42:16.531Z,20.83
2023-03-13T01:45:00.202Z,26.55
2023-03-13T01:47:31.619Z,22.48
2023-03-13T01:50:12.125Z,24.60
2023-03-13T01:52:56.596Z,26.90
2023-03-13T01:55:32.437Z,27.88
2023-03-13T01:58:03.821Z,25.05
2023-03-13T02:00:38.882Z,28.17
2023-03-13T02:03:25.359Z,29.00
2023-03-13T02:05:57.913Z,27.23
2023-03-13T02:08:40.269Z,27.38
2023-03-13T02:11:35.766Z,25.70
2023-03-13T02:14:22.425Z,31.92
2023-03-13T02:16:57.359Z,26.35
2023-03-13T02:19:41.146Z,31.33
2023-03-13T02:22:38.093Z,28.83
2023-03-13T02:25:28.299Z,24.40
2023-03-13T02:28:15.472Z,24.30
2023-03-13T02:30:53.190Z,28.70
2023-03-13T02:33:28.802Z,25.58
2023-03-13T02:36:02.384Z,28.20
2023-03-13T02:38:38.055Z,26.67
2023-03-13T02:41:10.352Z,24.40
2023-03-13T02:43:41.779Z,36.83
2023-03-13T02:46:19.477Z,36.97
2023-03-13T02:48:55.968Z,26.23
2023-03-13T02:51:33.728Z,24.42
2023-03-13T02:54:12.638Z,22.15
2023-03-13T02:56:47.283Z,27.58
2023-03-13T02:59:19.109Z,37.00
2023-03-13T03:01:54.297Z,23.85
2023-03-13T03:04:42.062Z,38.53
2023-03-13T03:07:14.997Z,23.15
2023-03-13T03:09:46.402Z,31.55
2023-03-13T03:12:22.334Z,40.13
2023-03-13T03:14:53.533Z,21.27
2023-03-13T03:17:25.648Z,27.98
2023-03-13T03:19:57.878Z,23.50
2023-03-13T03:22:29.102Z,33.53
2023-03-13T03:25:01.438Z,18.85
2023-03-13T03:27:34.451Z,31.50
2023-03-13T03:30:07.340Z,21.77
2023-03-13T03:32:42.538Z,22.73
2023-03-13T03:35:13.815Z,27.73
2023-03-13T03:37:45.061Z,25.58
2023-03-13T03:40:16.926Z,33.50
2023-03-13T03:42:49.242Z,28.98
2023-03-13T03:45:20.561Z,31.77
2023-03-13T03:47:51.921Z,26.88
2023-03-13T03:50:23.120Z,29.00
2023-03-13T03:53:00.581Z,34.50
2023-03-13T03:55:35.536Z,26.38
2023-03-13T03:58:06.547Z,30.88
2023-03-13T04:01:02.091Z,31.65
2023-03-13T04:03:33.881Z,30.33
2023-03-13T04:06:05.665Z,26.63
2023-03-13T04:08:38.480Z,25.20
2023-03-13T04:11:12.022Z,20.50
2023-03-13T04:13:46.709Z,27.90
2023-03-13T04:16:18.199Z,20.90
2023-03-13T04:18:50.882Z,30.50
2023-03-13T04:21:27.427Z,24.15
2023-03-13T04:24:29.582Z,20.98
2023-03-13T04:27:05.569Z,19.75
2023-03-13T04:29:36.893Z,31.45
2023-03-13T04:32:28.302Z,22.92
2023-03-13T04:35:09.873Z,27.77
2023-03-13T04:40:46.408Z,25.23
2023-03-13T04:43:33.155Z,25.63
2023-03-13T04:46:14.249Z,29.60
2023-03-13T04:49:14.606Z,22.73
2023-03-13T04:52:10.249Z,24.67
2023-03-13T04:54:58.145Z,22.80
2023-03-13T04:57:49.420Z,22.80
2023-03-13T05:00:43.252Z,25.98
2023-03-13T05:03:33.432Z,30.08
2023-03-13T05:06:18.033Z,32.90
2023-03-13T05:09:08.113Z,31.90
2023-03-13T05:11:58.332Z,26.48
2023-03-13T05:14:49.254Z,23.27
2023-03-13T05:17:38.767Z,21.88
2023-03-13T05:20:33.091Z,23.77
2023-03-13T05:23:10.619Z,37.05
2023-03-13T05:26:01.131Z,26.40
2023-03-13T05:29:04.636Z,27.45
2023-03-13T05:31:48.863Z,32.78
2023-03-13T05:34:39.837Z,22.00
2023-03-13T05:37:31.119Z,20.23
2023-03-13T05:40:22.330Z,34.58
2023-03-13T05:43:28.473Z,36.88
2023-03-13T05:46:21.955Z,23.08
2023-03-13T05:49:14.938Z,26.42
2023-03-13T05:52:08.925Z,27.70
2023-03-13T05:54:40.379Z,21.70
2023-03-13T05:57:52.954Z,36.95
2023-03-13T06:00:42.257Z,25.10
2023-03-13T06:03:36.288Z,34.42
2023-03-13T06:06:13.074Z,31.38
2023-03-13T06:09:24.540Z,35.55
2023-03-13T06:11:58.396Z,25.85
2023-03-13T06:14:31.122Z,38.53
2023-03-13T06:17:38.397Z,34.22
2023-03-13T06:20:13.763Z,33.40
2023-03-13T06:22:44.937Z,30.15
2023-03-13T06:25:18.963Z,49.47
2023-03-13T06:30:22.608Z,37.85
2023-03-13T06:32:54.183Z,25.65
2023-03-13T06:35:25.308Z,31.10
2023-03-13T06:37:57.111Z,36.85
2023-03-13T06:40:28.555Z,24.98
2023-03-13T06:43:00.404Z,40.33
2023-03-13T06:45:31.836Z,25.13
2023-03-13T06:48:02.985Z,37.88
2023-03-13T06:50:37.328Z,27.80
2023-03-13T06:53:10.314Z,34.28
2023-03-13T06:55:41.351Z,28.45
2023-03-13T06:58:25.447Z,43.20
2023-03-13T07:01:07.927Z,34.95
2023-03-13T07:03:40.102Z,36.38
2023-03-13T07:06:12.725Z,27.83
2023-03-13T07:08:45.912Z,32.72
2023-03-13T07:11:18.134Z,26.17
2023-03-13T07:13:49.520Z,34.40
2023-03-13T07:16:31.154Z,25.42
2023-03-13T07:19:02.876Z,27.67
2023-03-13T07:21:38.110Z,35.88
2023-03-13T07:24:10.085Z,27.35
2023-03-13T07:26:51.239Z,25.80
2023-03-13T07:31:56.447Z,37.67
2023-03-13T07:34:30.252Z,29.08
2023-03-13T07:37:03.665Z,45.72
2023-03-13T07:39:35.019Z,37.08
2023-03-13T07:42:06.692Z,30.38
2023-03-13T07:44:38.242Z,29.08
2023-03-13T07:47:12.654Z,32.05
2023-03-13T07:49:47.126Z,31.73
2023-03-13T07:52:19.414Z,26.42
2023-03-13T07:57:34.930Z,35.00
2023-03-13T08:00:07.943Z,41.47
2023-03-13T08:02:42.584Z,34.42
2023-03-13T08:05:13.824Z,28.00
2023-03-13T08:07:47.263Z,32.05
2023-03-13T08:10:18.758Z,35.10
2023-03-13T08:12:50.185Z,28.05
2023-03-13T08:15:28.293Z,32.15
2023-03-13T08:18:00.160Z,31.73
2023-03-13T08:20:32.612Z,31.48
2023-03-13T08:23:34.492Z,27.02
2023-03-13T08:26:29.681Z,19.80
2023-03-13T08:29:08.237Z,31.00
2023-03-13T08:31:45.683Z,28.88
2023-03-13T08:34:17.799Z,26.30
2023-03-13T08:36:49.293Z,35.67
2023-03-13T08:39:24.211Z,25.83
2023-03-13T08:41:55.555Z,23.20
2023-03-13T08:44:46.530Z,31.27
2023-03-13T08:47:19.573Z,26.30
2023-03-13T08:49:53.604Z,22.03
2023-03-13T08:52:24.946Z,22.95
2023-03-13T08:54:59.174Z,34.75
2023-03-13T08:57:30.267Z,29.98
2023-03-13T09:00:01.475Z,33.90
2023-03-13T09:02:33.686Z,27.05
2023-03-13T09:05:04.912Z,28.90
2023-03-13T09:07:36.131Z,33.78
2023-03-13T09:10:07.689Z,30.65
2023-03-13T09:12:41.098Z,28.63
2023-03-13T09:15:12.581Z,30.42
2023-03-13T09:17:45.076Z,34.13
2023-03-13T09:20:16.319Z,32.88
2023-03-13T09:22:47.930Z,28.77
2023-03-13T09:25:19.282Z,32.63
2023-03-13T09:27:51.471Z,34.63
2023-03-13T09:30:22.880Z,34.45
2023-03-13T09:32:55.288Z,25.60
2023-03-13T09:35:27.484Z,25.92
2023-03-13T09:37:59.974Z,24.20
2023-03-13T09:40:31.469Z,29.25
2023-03-13T09:43:06.877Z,26.90
2023-03-13T09:45:45.713Z,32.20
2023-03-13T09:48:32.216Z,22.42
2023-03-13T09:51:03.176Z,23.88
2023-03-13T09:53:46.928Z,23.58
2023-03-13T09:56:26.319Z,29.20
2023-03-13T09:59:38.083Z,29.02
2023-03-13T10:02:19.508Z,26.60
2023-03-13T10:05:10.832Z,22.05
2023-03-13T10:07:52.721Z,24.88
2023-03-13T10:10:45.582Z,27.85
2023-03-13T10:14:01.549Z,32.40
2023-03-13T10:19:40.084Z,32.45
2023-03-13T10:22:22.402Z,28.63
2023-03-13T10:25:25.803Z,26.80
2023-03-13T10:27:57.064Z,27.88
2023-03-13T10:30:34.384Z,27.85
2023-03-13T10:33:12.012Z,25.52
2023-03-13T10:35:47.271Z,24.75
2023-03-13T10:38:24.630Z,25.98
2023-03-13T10:41:01.960Z,20.60
2023-03-13T10:43:33.000Z,26.55
2023-03-13T10:46:05.688Z,32.75
2023-03-13T10:48:39.706Z,82.50
2023-03-13T10:51:41.936Z,115.77
2023-03-13T10:54:37.511Z,188.65
2023-03-13T10:57:30.582Z,157.90
2023-03-13T11:00:07.158Z,228.32
2023-03-13T11:02:41.252Z,208.15
2023-03-13T11:05:35.760Z,169.82
2023-03-13T11:08:19.232Z,132.40
2023-03-13T11:11:01.913Z,164.68
2023-03-13T11:13:41.833Z,156.30
2023-03-13T11:16:31.066Z,139.75
2023-03-13T11:19:32.825Z,112.32
2023-03-13T11:22:16.191Z,84.82
2023-03-13T11:25:11.702Z,64.40
2023-03-13T11:27:59.366Z,66.03
2023-03-13T11:30:52.506Z,57.83
2023-03-13T11:33:52.463Z,61.53
2023-03-13T11:36:27.186Z,65.03
2023-03-13T11:39:26.066Z,60.28
2023-03-13T11:42:02.992Z,48.30
2023-03-13T11:45:15.032Z,45.13
2023-03-13T11:48:12.941Z,44.88
2023-03-13T11:51:04.132Z,32.92
2023-03-13T11:53:45.289Z,36.75
2023-03-13T11:56:52.034Z,31.02
2023-03-13T11:59:26.167Z,29.38
2023-03-13T12:02:11.889Z,32.78
2023-03-13T12:04:49.719Z,26.60
2023-03-13T12:07:23.776Z,25.35
2023-03-13T12:10:16.201Z,32.55
2023-03-13T12:13:10.696Z,29.75
2023-03-13T12:15:59.903Z,33.72
2023-03-13T12:18:40.780Z,24.58
2023-03-13T12:21:28.869Z,35.15
2023-03-13T12:24:09.189Z,32.53
2023-03-13T12:27:08.040Z,31.38
2023-03-13T12:29:39.313Z,28.63
2023-03-13T12:32:21.349Z,30.48
2023-03-13T12:35:20.445Z,33.55
2023-03-13T12:38:04.230Z,28.52
2023-03-13T12:41:22.784Z,33.80
2023-03-13T12:44:08.199Z,29.05
2023-03-13T12:47:10.565Z,32.85
2023-03-13T12:50:08.972Z,26.48
2023-03-13T12:53:13.019Z,34.60
2023-03-13T12:56:07.292Z,31.65
2023-03-13T12:58:53.587Z,35.80
2023-03-13T13:01:41.479Z,36.70
2023-03-13T13:04:23.829Z,27.15
2023-03-13T13:07:12.851Z,29.27
2023-03-13T13:10:05.589Z,33.67
2023-03-13T13:12:51.658Z,31.33
2023-03-13T13:15:29.185Z,30.80
2023-03-13T13:18:09.378Z,37.63
2023-03-13T13:20:50.034Z,35.67
2023-03-13T13:23:48.786Z,32.65
2023-03-13T13:26:43.266Z,44.38
2023-03-13T13:29:14.401Z,35.03
2023-03-13T13:31:52.598Z,36.50
2023-03-13T13:34:34.109Z,28.55
2023-03-13T13:37:27.972Z,40.88
2023-03-13T13:40:18.842Z,34.25
2023-03-13T13:43:11.968Z,28.55
2023-03-13T13:46:04.034Z,31.20
2023-03-13T13:48:44.823Z,30.90
2023-03-13T13:51:31.625Z,25.77
2023-03-13T13:54:47.399Z,31.85
2023-03-13T13:57:28.583Z,38.03
2023-03-13T14:00:24.498Z,35.42
2023-03-13T14:02:57.757Z,33.35
2023-03-13T14:05:37.741Z,41.78
2023-03-13T14:08:26.353Z,31.58
2023-03-13T14:11:17.661Z,29.67
2023-03-13T14:14:23.450Z,36.03
2023-03-13T14:16:58.844Z,30.23
2023-03-13T14:19:40.674Z,32.67
2023-03-13T14:22:16.199Z,31.25
2023-03-13T14:25:00.278Z,31.52
2023-03-13T14:27:31.454Z,35.97
2023-03-13T14:30:07.436Z,30.80
2023-03-13T14:32:43.977Z,31.33
2023-03-13T14:35:21.901Z,37.47
2023-03-13T14:37:55.867Z,33.05
2023-03-13T14:40:47.491Z,32.95
2023-03-13T14:43:32.359Z,29.45
2023-03-13T14:46:16.218Z,40.35
2023-03-13T14:48:47.620Z,30.27
2023-03-13T14:51:31.748Z,30.70
2023-03-13T14:54:06.298Z,32.53
2023-03-13T14:56:39.686Z,33.13
2023-03-13T14:59:30.921Z,26.45
2023-03-13T15:02:16.697Z,27.95
2023-03-13T15:05:00.008Z,25.08
2023-03-13T15:07:52.597Z,35.92
2023-03-13T15:10:26.303Z,36.13
2023-03-13T15:13:28.120Z,33.00
2023-03-13T15:16:04.223Z,30.80
2023-03-13T15:18:37.849Z,30.02
2023-03-13T15:21:20.458Z,33.38
2023-03-13T15:24:04.020Z,32.08
2023-03-13T15:26:36.222Z,38.70
2023-03-13T15:29:15.415Z,25.58
2023-03-13T15:31:49.713Z,26.75
2023-03-13T15:34:26.710Z,35.75
2023-03-13T15:36:58.195Z,35.20
2023-03-13T15:39:30.704Z,32.03
2023-03-13T15:42:01.913Z,29.85
2023-03-13T15:44:33.295Z,27.20
2023-03-13T15:47:37.793Z,28.75
2023-03-13T15:50:17.494Z,26.92
2023-03-13T15:52:49.041Z,29.65
2023-03-13T15:55:21.588Z,29.20
2023-03-13T15:57:55.673Z,30.15
2023-03-13T16:00:32.037Z,29.27
2023-03-13T16:03:09.516Z,29.80
2023-03-13T16:05:47.595Z,29.15
2023-03-13T16:08:35.300Z,26.58
2023-03-13T16:11:07.790Z,29.52
2023-03-13T16:13:38.973Z,25.17
2023-03-13T16:16:37.022Z,31.98
2023-03-13T16:19:29.403Z,29.95
2023-03-13T16:22:01.672Z,25.75
2023-03-13T16:24:32.926Z,34.10
2023-03-13T16:27:04.120Z,30.02
2023-03-13T16:29:35.631Z,27.90
2023-03-13T16:32:07.707Z,25.00
2023-03-13T16:34:38.894Z,32.85
2023-03-13T16:37:23.940Z,31.42
2023-03-13T16:39:57.144Z,24.65
2023-03-13T16:42:28.538Z,25.75
2023-03-13T16:44:59.693Z,31.05
2023-03-13T16:47:32.736Z,32.05
2023-03-13T16:50:04.562Z,27.05
2023-03-13T16:52:56.309Z,31.27
2023-03-13T16:55:32.089Z,27.58
2023-03-13T16:58:04.405Z,25.98
2023-03-13T17:00:35.758Z,27.73
2023-03-13T17:03:07.196Z,26.65
2023-03-13T17:05:38.821Z,23.83
2023-03-13T17:08:11.945Z,26.45
2023-03-13T17:10:43.319Z,24.70
2023-03-13T17:13:16.312Z,24.58
2023-03-13T17:15:48.419Z,27.90
2023-03-13T17:18:19.477Z,25.02
2023-03-13T17:20:52.744Z,23.00
2023-03-13T17:23:24.315Z,27.50
2023-03-13T17:25:56.590Z,27.70
2023-03-13T17:28:27.803Z,33.45
2023-03-13T17:30:59.133Z,25.23
2023-03-13T17:33:30.648Z,20.73
2023-03-13T17:36:04.733Z,24.67
2023-03-13T17:38:36.228Z,19.38
2023-03-13T17:41:07.558Z,29.65
2023-03-13T17:43:38.429Z,27.35
2023-03-13T17:46:38.206Z,24.98
2023-03-13T17:49:09.773Z,25.52
2023-03-13T17:51:43.033Z,26.55
2023-03-13T17:54:15.769Z,24.52
2023-03-13T17:56:47.848Z,25.07
2023-03-13T17:59:20.969Z,24.38
2023-03-13T18:01:56.986Z,26.87
2023-03-13T18:04:27.958Z,27.08
2023-03-13T18:06:59.132Z,31.23
2023-03-13T18:09:30.498Z,30.20
2023-03-13T18:12:01.690Z,24.90
2023-03-13T18:14:33.119Z,17.40
2023-03-13T18:17:04.108Z,23.75
2023-03-13T18:19:36.398Z,26.08
2023-03-13T18:22:14.902Z,23.35
2023-03-13T18:24:46.982Z,23.02
2023-03-13T18:27:20.170Z,29.58
2023-03-13T18:29:51.826Z,27.47
2023-03-13T18:32:23.007Z,26.40
2023-03-13T18:34:53.770Z,28.10
2023-03-13T18:37:36.609Z,27.10
2023-03-13T18:40:19.531Z,32.85
2023-03-13T18:42:50.745Z,23.50
2023-03-13T18:45:27.068Z,28.50
2023-03-13T18:47:58.247Z,25.58
2023-03-13T18:50:32.850Z,24.10
2023-03-13T18:53:03.588Z,27.92
2023-03-13T18:55:34.555Z,27.85
2023-03-13T18:58:05.703Z,25.20
2023-03-13T19:00:36.482Z,34.22
2023-03-13T19:03:07.105Z,19.52
2023-03-13T19:05:37.912Z,23.38
2023-03-13T19:08:10.537Z,27.27
2023-03-13T19:10:41.990Z,23.42
2023-03-13T19:13:13.065Z,25.35
2023-03-13T19:15:44.125Z,20.52
2023-03-13T19:18:14.851Z,22.00
2023-03-13T19:20:45.559Z,28.48
2023-03-13T19:23:16.560Z,24.95
2023-03-13T19:25:47.529Z,24.00
2023-03-13T19:28:18.783Z,20.58
2023-03-13T19:30:49.943Z,22.80
2023-03-13T19:33:20.714Z,22.23
2023-03-13T19:35:51.756Z,23.88
2023-03-13T19:38:22.884Z,18.58
2023-03-13T19:40:55.685Z,23.77
2023-03-13T19:43:26.807Z,21.77
2023-03-13T19:45:57.904Z,22.27
2023-03-13T19:48:29.788Z,25.48
2023-03-13T19:51:00.686Z,24.67
2023-03-13T19:53:31.586Z,23.50
2023-03-13T19:56:02.668Z,25.73
2023-03-13T19:58:33.387Z,21.60
2023-03-13T20:01:16.428Z,23.83
2023-03-13T20:03:49.236Z,27.00
2023-03-13T20:06:23.335Z,20.65
2023-03-13T20:08:59.873Z,23.20
2023-03-13T20:11:31.632Z,22.08
2023-03-13T20:14:02.623Z,20.55
2023-03-13T20:16:35.081Z,25.65
2023-03-13T20:19:06.739Z,20.23
2023-03-13T20:21:42.755Z,23.58
2023-03-13T20:24:13.617Z,19.33
2023-03-13T20:26:44.680Z,30.33
2023-03-13T20:29:15.552Z,27.27
2023-03-13T20:31:46.288Z,21.48
2023-03-13T20:34:17.190Z,32.53
2023-03-13T20:36:48.092Z,28.13
2023-03-13T20:39:19.166Z,27.58
2023-03-13T20:41:50.271Z,29.02
2023-03-13T20:44:21.252Z,26.00
2023-03-13T20:46:52.399Z,19.77
2023-03-13T20:49:23.609Z,27.40
2023-03-13T20:51:54.381Z,19.33
2023-03-13T20:54:25.056Z,24.65
2023-03-13T20:56:56.230Z,27.90
2023-03-13T20:59:27.417Z,23.77
2023-03-13T21:01:58.695Z,25.25
2023-03-13T21:04:29.704Z,22.00
2023-03-13T21:07:06.074Z,23.65
2023-03-13T21:09:37.640Z,25.17
2023-03-13T21:12:08.516Z,22.38
2023-03-13T21:14:39.541Z,26.88
2023-03-13T21:17:12.604Z,24.38
2023-03-13T21:19:45.210Z,25.27
2023-03-13T21:22:16.194Z,19.73
2023-03-13T21:24:48.845Z,28.55
2023-03-13T21:27:20.454Z,24.27
2023-03-13T21:29:52.615Z,28.85
2023-03-13T21:32:24.801Z,30.48
2023-03-13T21:34:57.058Z,24.98
2023-03-13T21:37:28.404Z,26.60
2023-03-13T21:39:59.650Z,23.75
2023-03-13T21:42:32.239Z,26.83
2023-03-13T21:45:02.974Z,21.67
2023-03-13T21:47:37.944Z,31.38
2023-03-13T21:50:12.963Z,22.05
2023-03-13T21:52:44.049Z,21.17
2023-03-13T21:55:16.059Z,23.33
2023-03-13T21:57:47.839Z,27.27
2023-03-13T22:00:19.036Z,21.50
2023-03-13T22:02:49.728Z,24.58
2023-03-13T22:05:20.505Z,31.15
2023-03-13T22:07:51.488Z,25.38
2023-03-13T22:10:22.420Z,21.55
2023-03-13T22:12:53.395Z,21.38
2023-03-13T22:15:24.111Z,20.65
2023-03-13T22:17:54.743Z,27.38
2023-03-13T22:20:25.515Z,22.88
2023-03-13T22:22:56.229Z,27.40
2023-03-13T22:25:27.246Z,24.25
2023-03-13T22:27:58.222Z,26.02
2023-03-13T22:30:29.068Z,26.05
2023-03-13T22:33:00.135Z,20.80
2023-03-13T22:35:31.370Z,23.67
2023-03-13T22:38:02.600Z,24.50
2023-03-13T22:40:34.905Z,28.33
2023-03-13T22:43:07.452Z,26.48
2023-03-13T22:45:40.771Z,27.50
2023-03-13T22:48:11.676Z,25.23
2023-03-13T22:50:44.018Z,22.58
2023-03-13T22:53:15.191Z,20.38
2023-03-13T22:55:45.906Z,30.17
2023-03-13T22:58:16.838Z,24.48
2023-03-13T23:00:49.227Z,25.13
2023-03-13T23:03:20.783Z,24.15
2023-03-13T23:05:51.730Z,19.58
2023-03-13T23:08:22.552Z,22.95
2023-03-13T23:10:53.678Z,29.88
2023-03-13T23:13:24.916Z,21.15
2023-03-13T23:15:57.195Z,26.42
2023-03-13T23:18:30.779Z,31.15
2023-03-13T23:21:08.094Z,27.33
2023-03-13T23:23:39.641Z,20.48
2023-03-13T23:26:13.977Z,23.60
2023-03-13T23:28:45.542Z,31.73
2023-03-13T23:31:22.163Z,22.55
2023-03-13T23:33:53.352Z,24.63
2023-03-13T23:36:24.251Z,25.33
2023-03-13T23:38:56.638Z,23.58
2023-03-13T23:41:28.995Z,30.40
2023-03-13T23:44:02.506Z,26.65
2023-03-13T23:46:35.162Z,31.52
2023-03-13T23:49:06.340Z,32.08
2023-03-13T23:51:37.260Z,27.02
2023-03-13T23:54:08.214Z,30.13
2023-03-13T23:56:39.459Z,26.90
2023-03-13T23:59:10.517Z,22.73
